Time;durP1;ratioP1;P1;durP2;ratioP2;P2;SDS_P1;SDS_P2;PMS_P1;PMS_P2;Temp;Humidity;BMP_temperature;BMP_pressure;BME280_temperature;BME280_humidity;BME280_pressure;Samples;Min_cycle;Max_cycle;Signal;HPM_P1;HPM_P2
2023/03/19 00:01:22;;;;;;;59.25;45.38;;;;;;;5.89;100.00;101892.75;5061616;28;20498;-80
2023/03/19 00:03:49;;;;;;;55.83;46.58;;;;;;;5.95;100.00;101893.00;5067195;28;20056;-80
2023/03/19 00:06:16;;;;;;;59.63;46.95;;;;;;;5.97;100.00;101891.06;5060668;28;20057;-80
2023/03/19 00:08:44;;;;;;;52.72;46.47;;;;;;;5.76;100.00;101893.09;5049995;28;20045;-80
2023/03/19 00:11:13;;;;;;;52.55;42.75;;;;;;;5.84;100.00;101881.78;5058419;28;20485;-80
2023/03/19 00:13:40;;;;;;;53.95;46.70;;;;;;;5.82;100.00;101881.13;5056057;28;20789;-80
2023/03/19 00:16:08;;;;;;;52.00;41.47;;;;;;;5.88;100.00;101878.72;5057347;28;20041;-80
2023/03/19 00:18:35;;;;;;;52.17;41.00;;;;;;;5.83;100.00;101882.78;5062275;28;20053;-80
2023/03/19 00:21:04;;;;;;;51.78;44.28;;;;;;;5.84;100.00;101880.00;5055123;28;20065;-80
2023/03/19 00:23:31;;;;;;;50.28;44.17;;;;;;;5.73;100.00;101882.84;5060023;28;20075;-80
2023/03/19 00:25:59;;;;;;;48.83;42.25;;;;;;;5.78;100.00;101882.38;5059995;28;20049;-80
2023/03/19 00:28:26;;;;;;;55.10;41.92;;;;;;;5.81;100.00;101872.41;5064452;28;20052;-80
2023/03/19 00:30:53;;;;;;;48.70;42.45;;;;;;;5.76;100.00;101882.53;5051057;28;20052;-80
2023/03/19 00:33:20;;;;;;;49.33;41.83;;;;;;;5.84;100.00;101873.88;5061454;28;20053;-80
2023/03/19 00:35:47;;;;;;;46.65;41.58;;;;;;;5.88;100.00;101867.38;5059414;28;20053;-79
2023/03/19 00:38:14;;;;;;;50.97;45.45;;;;;;;5.87;100.00;101873.59;5061176;28;20048;-80
2023/03/19 00:40:41;;;;;;;50.80;43.70;;;;;;;5.74;100.00;101868.66;5049899;28;20058;-80
2023/03/19 00:43:09;;;;;;;45.33;39.05;;;;;;;5.71;100.00;101874.22;5058249;28;20555;-80
2023/03/19 00:45:36;;;;;;;50.92;42.70;;;;;;;5.76;100.00;101866.72;5058664;28;20064;-79
2023/03/19 00:48:03;;;;;;;51.30;42.25;;;;;;;5.68;100.00;101866.63;5059240;28;20044;-80
2023/03/19 00:50:30;;;;;;;48.00;42.67;;;;;;;5.77;100.00;101868.38;5060500;28;20045;-80
2023/03/19 00:52:57;;;;;;;53.83;45.42;;;;;;;5.82;100.00;101870.59;5055535;28;20049;-80
2023/03/19 00:55:24;;;;;;;48.25;43.00;;;;;;;5.81;100.00;101861.84;5055588;28;20108;-80
2023/03/19 00:57:52;;;;;;;52.03;43.90;;;;;;;5.86;100.00;101864.03;5057288;28;20055;-80
2023/03/19 01:00:21;;;;;;;49.40;41.63;;;;;;;5.88;100.00;101870.00;5054126;28;20475;-80
2023/03/19 01:02:48;;;;;;;47.67;41.97;;;;;;;5.84;100.00;101866.84;5062245;28;20056;-79
2023/03/19 01:05:15;;;;;;;50.50;45.03;;;;;;;5.92;100.00;101864.28;5066718;28;20060;-80
2023/03/19 01:07:42;;;;;;;51.50;45.45;;;;;;;5.89;100.00;101859.28;5057278;28;20056;-80
2023/03/19 01:10:10;;;;;;;51.30;45.67;;;;;;;5.82;100.00;101855.59;5058667;28;20048;-80
2023/03/19 01:12:37;;;;;;;50.78;45.30;;;;;;;5.89;100.00;101853.19;5060375;28;20045;-80
2023/03/19 01:15:05;;;;;;;52.13;46.78;;;;;;;5.90;100.00;101857.47;5055413;28;20053;-80
2023/03/19 01:17:34;;;;;;;52.33;45.90;;;;;;;5.85;100.00;101855.28;5056110;28;20057;-79
2023/03/19 01:20:00;;;;;;;51.95;44.85;;;;;;;5.87;100.00;101858.63;5056455;28;20057;-80
2023/03/19 01:22:27;;;;;;;48.22;43.22;;;;;;;5.87;100.00;101860.41;5054926;28;20057;-80
2023/03/19 01:24:54;;;;;;;50.22;43.90;;;;;;;5.90;100.00;101860.97;5059229;28;20106;-80
2023/03/19 01:27:21;;;;;;;51.75;46.15;;;;;;;5.87;100.00;101853.34;5059697;28;20076;-79
2023/03/19 01:29:48;;;;;;;51.08;44.72;;;;;;;5.80;100.00;101860.16;5062010;28;20041;-80
2023/03/19 01:32:15;;;;;;;50.55;45.25;;;;;;;5.81;100.00;101867.13;5061531;28;20510;-80
2023/03/19 01:34:43;;;;;;;51.10;45.58;;;;;;;5.82;100.00;101863.50;5068635;28;20049;-80
2023/03/19 01:37:10;;;;;;;47.60;42.53;;;;;;;5.66;100.00;101858.03;5057253;28;20057;-80
2023/03/19 01:39:37;;;;;;;54.03;46.05;;;;;;;5.67;100.00;101863.16;5058770;28;20083;-80
2023/03/19 01:42:04;;;;;;;57.67;51.45;;;;;;;5.56;100.00;101858.06;5061479;28;20041;-80
2023/03/19 01:44:33;;;;;;;58.97;51.83;;;;;;;5.63;100.00;101867.06;5059697;28;20052;-80
2023/03/19 01:47:03;;;;;;;57.45;50.80;;;;;;;5.58;100.00;101856.13;5058164;28;20493;-80
2023/03/19 01:49:31;;;;;;;59.08;52.85;;;;;;;5.62;100.00;101854.84;5059379;28;20111;-80
2023/03/19 01:52:00;;;;;;;62.17;55.25;;;;;;;5.59;100.00;101856.94;5055131;28;20182;-80
2023/03/19 01:54:30;;;;;;;60.38;52.38;;;;;;;5.55;100.00;101856.41;5059110;28;20078;-80
2023/03/19 01:57:01;;;;;;;63.15;53.78;;;;;;;5.58;100.00;101855.28;5053912;28;20481;-80
2023/03/19 01:59:31;;;;;;;57.78;50.97;;;;;;;5.60;100.00;101845.41;5053197;28;20079;-80
2023/03/19 02:02:01;;;;;;;68.65;55.60;;;;;;;5.67;100.00;101842.06;5051908;28;20052;-80
2023/03/19 02:04:31;;;;;;;111.72;68.57;;;;;;;5.43;100.00;101847.03;5066392;28;20041;-80
2023/03/19 02:07:00;;;;;;;80.75;57.55;;;;;;;5.50;100.00;101841.03;5056074;28;20057;-80
2023/03/19 02:09:29;;;;;;;70.90;51.45;;;;;;;5.60;100.00;101853.31;5060854;28;20068;-80
2023/03/19 02:11:57;;;;;;;58.75;49.03;;;;;;;5.58;100.00;101844.75;5064309;28;20040;-80
2023/03/19 02:14:24;;;;;;;65.57;48.45;;;;;;;5.61;100.00;101857.63;5058172;28;20050;-80
2023/03/19 02:16:52;;;;;;;62.72;48.75;;;;;;;5.56;100.00;101851.97;5064204;28;20119;-80
2023/03/19 02:19:26;;;;;;;61.17;49.75;;;;;;;5.57;100.00;101843.94;5060654;28;20094;-80
2023/03/19 02:21:55;;;;;;;55.42;47.05;;;;;;;5.57;100.00;101849.19;5061048;28;20048;-80
2023/03/19 02:24:27;;;;;;;56.70;50.35;;;;;;;5.62;100.00;101854.00;5059322;28;20588;-80
2023/03/19 02:26:57;;;;;;;53.53;46.03;;;;;;;5.56;100.00;101847.53;5061555;28;20076;-80
2023/03/19 02:29:24;;;;;;;53.67;43.92;;;;;;;5.48;100.00;101853.53;5058513;28;20056;-80
2023/03/19 02:31:51;;;;;;;54.35;44.40;;;;;;;5.41;100.00;101855.06;5060802;28;20430;-80
2023/03/19 02:34:39;;;;;;;49.20;42.53;;;;;;;5.28;100.00;101854.56;5061993;28;20061;-80
2023/03/19 02:37:11;;;;;;;54.95;42.65;;;;;;;5.28;100.00;101854.56;5062067;28;20131;-80
2023/03/19 02:39:46;;;;;;;50.50;44.10;;;;;;;5.07;100.00;101843.41;5056793;28;20112;-80
2023/03/19 02:42:15;;;;;;;48.28;42.42;;;;;;;4.96;100.00;101847.00;5061686;28;20045;-80
2023/03/19 02:44:42;;;;;;;49.00;40.97;;;;;;;4.72;100.00;101847.44;5055076;28;20060;-80
2023/03/19 02:47:09;;;;;;;51.10;43.22;;;;;;;4.80;100.00;101844.97;5057254;28;20049;-80
2023/03/19 02:49:36;;;;;;;50.55;43.33;;;;;;;4.83;100.00;101850.75;5053874;28;20050;-79
2023/03/19 02:52:03;;;;;;;50.40;44.92;;;;;;;4.80;100.00;101856.31;5059502;28;20661;-80
2023/03/19 02:54:29;;;;;;;49.55;41.85;;;;;;;4.53;100.00;101854.38;5052502;28;20100;-79
2023/03/19 02:56:56;;;;;;;49.97;43.13;;;;;;;4.50;100.00;101859.09;5056974;28;20045;-80
2023/03/19 02:59:25;;;;;;;53.90;48.20;;;;;;;4.42;100.00;101862.44;5055004;28;20050;-80
2023/03/19 03:01:51;;;;;;;52.15;46.53;;;;;;;4.35;100.00;101856.03;5058540;28;20597;-80
2023/03/19 03:04:18;;;;;;;57.17;50.80;;;;;;;4.23;100.00;101859.78;5065850;28;20060;-80
2023/03/19 03:06:45;;;;;;;53.17;46.60;;;;;;;3.97;100.00;101862.91;5060938;28;20079;-80
2023/03/19 03:09:13;;;;;;;51.38;45.92;;;;;;;3.87;100.00;101867.28;5056784;28;20038;-80
2023/03/19 03:11:41;;;;;;;60.97;54.42;;;;;;;3.74;100.00;101862.28;5056706;28;20076;-80
2023/03/19 03:14:07;;;;;;;62.65;49.13;;;;;;;3.61;100.00;101867.78;5049302;28;20445;-80
2023/03/19 03:16:36;;;;;;;62.53;49.67;;;;;;;3.56;100.00;101869.13;5052035;28;20052;-80
2023/03/19 03:19:04;;;;;;;61.45;53.05;;;;;;;3.29;100.00;101873.13;5053515;28;20076;-80
2023/03/19 03:21:32;;;;;;;59.78;52.58;;;;;;;2.98;100.00;101861.78;5052889;28;20061;-80
2023/03/19 03:23:59;;;;;;;51.63;45.40;;;;;;;3.05;100.00;101868.16;5055014;28;20045;-80
2023/03/19 03:26:26;;;;;;;57.88;46.55;;;;;;;2.91;100.00;101866.72;5051077;28;20053;-79
2023/03/19 03:28:52;;;;;;;53.97;42.58;;;;;;;2.81;100.00;101871.03;5056927;28;20045;-80
2023/03/19 03:31:20;;;;;;;54.45;46.20;;;;;;;2.68;100.00;101871.22;5057087;28;20057;-79
2023/03/19 03:33:48;;;;;;;53.20;43.10;;;;;;;2.55;100.00;101875.81;5058620;28;20063;-79
2023/03/19 03:36:15;;;;;;;53.58;42.63;;;;;;;2.27;100.00;101877.22;5061054;28;20048;-80
2023/03/19 03:38:41;;;;;;;50.65;41.83;;;;;;;2.42;100.00;101889.09;5049727;28;20049;-79
2023/03/19 03:41:08;;;;;;;61.60;42.58;;;;;;;2.23;100.00;101884.47;5060398;28;20118;-80
2023/03/19 03:43:35;;;;;;;60.38;43.83;;;;;;;2.50;100.00;101877.97;5053677;28;20057;-79
2023/03/19 03:46:02;;;;;;;58.15;45.95;;;;;;;2.58;100.00;101893.94;5052137;28;20507;-80
2023/03/19 03:48:28;;;;;;;65.32;51.25;;;;;;;2.69;100.00;101883.41;5054465;28;20061;-80
2023/03/19 03:50:56;;;;;;;63.55;50.35;;;;;;;2.65;100.00;101889.84;5048849;28;20102;-80
2023/03/19 03:53:23;;;;;;;59.33;48.67;;;;;;;2.05;100.00;101892.03;5056352;28;20628;-80
2023/03/19 03:55:50;;;;;;;57.17;46.28;;;;;;;2.26;100.00;101884.25;5055357;28;20130;-80
2023/03/19 03:58:17;;;;;;;56.92;47.85;;;;;;;2.09;100.00;101887.41;5051865;28;20437;-79
2023/03/19 04:00:45;;;;;;;59.97;47.50;;;;;;;2.26;100.00;101894.72;5060424;28;20111;-80
2023/03/19 04:03:11;;;;;;;56.20;45.83;;;;;;;1.67;100.00;101895.03;5052799;28;20110;-80
2023/03/19 04:05:38;;;;;;;59.47;49.97;;;;;;;2.04;100.00;101895.59;5056191;28;20059;-79
2023/03/19 04:08:07;;;;;;;60.75;48.55;;;;;;;1.92;100.00;101893.13;5054934;28;20060;-79
2023/03/19 04:10:35;;;;;;;58.10;48.80;;;;;;;2.08;100.00;101896.19;5046884;28;20522;-79
2023/03/19 04:13:02;;;;;;;60.97;49.38;;;;;;;2.11;100.00;101900.38;5054940;28;20056;-80
2023/03/19 04:15:29;;;;;;;60.20;46.33;;;;;;;2.03;100.00;101898.38;5055822;28;20060;-80
2023/03/19 04:17:56;;;;;;;51.53;39.85;;;;;;;1.77;100.00;101903.00;5046870;28;20050;-80
2023/03/19 04:20:22;;;;;;;59.92;45.80;;;;;;;1.90;100.00;101911.56;5055124;28;20045;-80
2023/03/19 04:22:50;;;;;;;74.20;54.38;;;;;;;1.91;100.00;101915.88;5050681;28;20049;-79
2023/03/19 04:25:18;;;;;;;61.30;48.15;;;;;;;2.00;100.00;101909.91;5053734;28;20431;-80
2023/03/19 04:27:45;;;;;;;54.00;41.42;;;;;;;1.29;100.00;101917.13;5050713;28;20053;-80
2023/03/19 04:30:13;;;;;;;48.97;39.60;;;;;;;1.26;100.00;101914.75;5058823;28;20508;-80
2023/03/19 04:32:40;;;;;;;62.25;46.17;;;;;;;1.67;100.00;101916.00;5050011;28;20065;-80
2023/03/19 04:35:07;;;;;;;55.30;44.67;;;;;;;1.47;100.00;101917.50;5052962;28;20053;-80
2023/03/19 04:37:34;;;;;;;59.30;47.85;;;;;;;1.84;100.00;101920.75;5050551;28;20140;-80
2023/03/19 04:40:01;;;;;;;57.53;46.58;;;;;;;2.02;100.00;101923.72;5054830;28;20079;-80
2023/03/19 04:42:29;;;;;;;54.95;45.42;;;;;;;2.11;100.00;101927.41;5048430;28;20052;-80
2023/03/19 04:45:02;;;;;;;58.80;47.58;;;;;;;2.00;100.00;101928.25;3887011;28;10002025;-80
2023/03/19 04:47:29;;;;;;;57.00;46.53;;;;;;;2.05;100.00;101926.09;5042177;28;20589;-80
2023/03/19 04:49:56;;;;;;;61.20;47.08;;;;;;;2.27;100.00;101921.78;5043833;28;20053;-80
2023/03/19 04:52:23;;;;;;;59.35;43.53;;;;;;;2.19;100.00;101930.25;5041617;28;20057;-80
2023/03/19 04:54:50;;;;;;;55.65;41.78;;;;;;;2.31;100.00;101930.25;5043519;28;20123;-80
2023/03/19 04:57:17;;;;;;;69.22;51.33;;;;;;;2.36;100.00;101920.22;5044601;28;20048;-80
2023/03/19 04:59:45;;;;;;;84.35;63.88;;;;;;;2.59;100.00;101928.84;5050173;28;20147;-80
2023/03/19 05:02:12;;;;;;;101.60;71.90;;;;;;;2.61;100.00;101924.31;5054643;28;20167;-80
2023/03/19 05:04:39;;;;;;;78.25;56.25;;;;;;;2.50;100.00;101925.19;5057683;28;20119;-80
2023/03/19 05:07:06;;;;;;;79.28;57.05;;;;;;;2.43;100.00;101926.66;5042129;28;20049;-80
2023/03/19 05:09:33;;;;;;;71.72;57.47;;;;;;;2.75;100.00;101919.63;5041876;28;20049;-80
2023/03/19 05:11:59;;;;;;;74.70;55.75;;;;;;;3.08;100.00;101916.94;5044118;28;20052;-80
2023/03/19 05:14:26;;;;;;;76.28;56.38;;;;;;;3.02;100.00;101918.28;5048997;28;20505;-80
2023/03/19 05:16:54;;;;;;;66.88;51.17;;;;;;;3.02;100.00;101914.84;5042818;28;20049;-80
2023/03/19 05:19:21;;;;;;;68.35;52.78;;;;;;;3.15;100.00;101920.75;5043705;28;20057;-80
2023/03/19 05:21:48;;;;;;;63.75;50.58;;;;;;;3.24;100.00;101917.34;5040827;28;20045;-80
2023/03/19 05:24:14;;;;;;;72.80;55.35;;;;;;;3.43;100.00;101914.00;5041957;28;20049;-80
2023/03/19 05:26:41;;;;;;;82.75;57.30;;;;;;;3.33;100.00;101921.84;5045658;28;20106;-80
2023/03/19 05:29:09;;;;;;;70.72;50.88;;;;;;;3.08;100.00;101915.16;5040134;28;20045;-80
2023/03/19 05:31:37;;;;;;;69.68;52.22;;;;;;;3.40;100.00;101919.53;5048789;28;20733;-80
2023/03/19 05:34:05;;;;;;;67.47;52.08;;;;;;;3.51;100.00;101916.81;5051745;28;20048;-80
2023/03/19 05:36:32;;;;;;;68.45;54.30;;;;;;;3.52;100.00;101915.03;5048610;28;20041;-80
2023/03/19 05:38:58;;;;;;;68.35;50.92;;;;;;;3.64;100.00;101921.84;5040652;28;20049;-80
2023/03/19 05:41:25;;;;;;;71.20;49.38;;;;;;;3.55;100.00;101915.59;5045711;28;20052;-80
2023/03/19 05:43:52;;;;;;;67.50;49.55;;;;;;;3.88;100.00;101927.63;5045978;28;20045;-80
2023/03/19 05:46:19;;;;;;;63.92;46.45;;;;;;;3.85;100.00;101929.69;5046962;28;20048;-80
2023/03/19 05:48:45;;;;;;;65.03;47.78;;;;;;;4.06;100.00;101916.50;5050315;28;20087;-80
2023/03/19 05:51:13;;;;;;;64.03;50.92;;;;;;;4.17;100.00;101929.50;5050485;28;20513;-80
2023/03/19 05:53:40;;;;;;;77.72;59.50;;;;;;;4.29;100.00;101917.09;5049517;28;20052;-80
2023/03/19 05:56:07;;;;;;;75.68;55.83;;;;;;;4.54;100.00;101913.13;5052609;28;20056;-81
2023/03/19 05:58:34;;;;;;;71.15;57.88;;;;;;;4.46;100.00;101921.69;5053686;28;20052;-80
2023/03/19 06:01:01;;;;;;;69.55;60.00;;;;;;;4.65;100.00;101917.41;5047668;28;20055;-80
2023/03/19 06:03:28;;;;;;;66.60;55.85;;;;;;;4.90;100.00;101908.13;5048991;28;20057;-80
2023/03/19 06:05:56;;;;;;;76.53;57.10;;;;;;;5.06;100.00;101913.66;5054909;28;20045;-81
2023/03/19 06:08:25;;;;;;;63.97;54.13;;;;;;;5.36;100.00;101911.81;5052665;28;20059;-82
2023/03/19 06:10:53;;;;;;;58.50;47.83;;;;;;;5.39;100.00;101911.53;5051574;28;20372;-80
2023/03/19 06:13:20;;;;;;;51.15;42.92;;;;;;;5.20;100.00;101917.66;5048614;28;20497;-80
2023/03/19 06:15:48;;;;;;;54.88;45.15;;;;;;;5.47;100.00;101920.38;5054786;28;20072;-80
2023/03/19 06:18:15;;;;;;;55.20;45.90;;;;;;;5.45;100.00;101917.06;5050519;28;20617;-80
2023/03/19 06:20:42;;;;;;;50.10;42.40;;;;;;;5.68;100.00;101911.44;5052211;28;20053;-80
2023/03/19 06:23:08;;;;;;;51.10;44.28;;;;;;;5.64;100.00;101918.78;5052886;28;20053;-80
2023/03/19 06:25:37;;;;;;;52.65;45.63;;;;;;;5.78;100.00;101917.50;5054929;28;20057;-80
2023/03/19 06:28:04;;;;;;;53.33;43.80;;;;;;;5.92;100.00;101917.00;5050131;28;20053;-80
2023/03/19 06:30:30;;;;;;;48.20;43.03;;;;;;;6.32;100.00;101913.22;5047396;28;20103;-80
2023/03/19 06:32:57;;;;;;;49.88;44.75;;;;;;;6.50;100.00;101921.16;5046820;28;20473;-81
2023/03/19 06:35:24;;;;;;;49.38;43.03;;;;;;;6.16;100.00;101913.88;5056498;28;20053;-80
2023/03/19 06:37:52;;;;;;;50.08;43.58;;;;;;;6.92;100.00;101912.63;5049263;28;20037;-81
2023/03/19 06:40:19;;;;;;;48.20;39.85;;;;;;;6.90;100.00;101922.53;5055765;28;20080;-81
2023/03/19 06:42:47;;;;;;;50.65;41.58;;;;;;;7.18;100.00;101917.94;5051844;28;20065;-81
2023/03/19 06:45:15;;;;;;;44.17;38.55;;;;;;;7.28;100.00;101917.84;5054291;28;20049;-81
2023/03/19 06:47:43;;;;;;;49.90;44.42;;;;;;;7.61;100.00;101920.69;5056338;28;20051;-80
2023/03/19 06:50:10;;;;;;;52.72;43.20;;;;;;;7.20;100.00;101923.06;5052244;28;20144;-81
2023/03/19 06:52:37;;;;;;;49.80;42.38;;;;;;;7.54;100.00;101920.50;5056854;28;20040;-81
2023/03/19 06:55:05;;;;;;;53.25;42.33;;;;;;;7.50;100.00;101916.50;5055333;28;20369;-81
2023/03/19 06:57:32;;;;;;;49.45;41.85;;;;;;;7.90;100.00;101929.13;5061754;28;20045;-81
2023/03/19 07:00:00;;;;;;;53.15;43.42;;;;;;;7.84;100.00;101916.53;5061179;28;20491;-81
2023/03/19 07:02:27;;;;;;;64.55;44.67;;;;;;;7.89;100.00;101918.69;5053182;28;20529;-81
2023/03/19 07:04:53;;;;;;;54.00;41.15;;;;;;;7.37;100.00;101931.94;5058749;28;20049;-80
2023/03/19 07:07:20;;;;;;;59.25;42.72;;;;;;;7.71;100.00;101926.69;5059634;28;20041;-80
2023/03/19 07:09:47;;;;;;;51.92;40.63;;;;;;;7.91;100.00;101922.81;5057262;28;20042;-80
2023/03/19 07:12:14;;;;;;;48.88;40.20;;;;;;;7.90;100.00;101931.75;5063117;28;20094;-81
2023/03/19 07:14:40;;;;;;;55.35;40.45;;;;;;;8.32;100.00;101932.72;5060260;28;20049;-81
2023/03/19 07:17:09;;;;;;;58.78;43.60;;;;;;;8.13;100.00;101923.25;5062591;28;20037;-81
2023/03/19 07:19:35;;;;;;;55.53;44.15;;;;;;;8.66;100.00;101935.31;5055525;28;20419;-80
2023/03/19 07:22:02;;;;;;;55.55;42.20;;;;;;;8.46;100.00;101927.66;5061748;28;20048;-81
2023/03/19 07:24:29;;;;;;;52.97;39.67;;;;;;;8.24;100.00;101928.25;5068234;28;20049;-80
2023/03/19 07:26:57;;;;;;;57.63;48.20;;;;;;;8.09;100.00;101933.31;5062837;28;20053;-80
2023/03/19 07:29:24;;;;;;;58.15;43.05;;;;;;;7.83;100.00;101932.53;5057461;28;20057;-81
2023/03/19 07:31:51;;;;;;;55.88;44.50;;;;;;;8.56;100.00;101932.81;5059204;28;20069;-80
2023/03/19 07:34:19;;;;;;;59.08;50.88;;;;;;;8.80;100.00;101926.72;5071406;28;20103;-80
2023/03/19 07:36:46;;;;;;;55.58;41.40;;;;;;;8.58;100.00;101922.06;5055303;28;20068;-81
2023/03/19 07:39:12;;;;;;;50.25;42.72;;;;;;;9.12;100.00;101925.88;5061800;28;20059;-80
2023/03/19 07:41:39;;;;;;;56.60;50.55;;;;;;;7.62;100.00;101931.09;5064587;28;20477;-80
2023/03/19 07:44:06;;;;;;;57.25;49.85;;;;;;;8.76;100.00;101927.22;5064855;28;20052;-81
2023/03/19 07:46:33;;;;;;;47.58;40.80;;;;;;;9.46;100.00;101934.63;5066079;28;20107;-81
2023/03/19 07:49:00;;;;;;;58.42;49.10;;;;;;;8.49;100.00;101929.97;5060493;28;20040;-80
2023/03/19 07:51:28;;;;;;;56.15;50.13;;;;;;;8.27;100.00;101926.09;5059385;28;20427;-81
2023/03/19 07:53:55;;;;;;;58.53;51.92;;;;;;;8.18;100.00;101929.72;5061999;28;20072;-80
2023/03/19 07:56:21;;;;;;;61.35;52.78;;;;;;;8.86;100.00;101922.56;5058298;28;20493;-81
2023/03/19 07:58:48;;;;;;;61.08;50.83;;;;;;;9.11;100.00;101913.66;5056910;28;20079;-80
2023/03/19 08:01:15;;;;;;;54.35;48.47;;;;;;;8.44;100.00;101912.91;5054198;28;20045;-81
2023/03/19 08:03:42;;;;;;;55.60;47.28;;;;;;;9.69;100.00;101905.56;5068216;28;20048;-80
2023/03/19 08:06:09;;;;;;;54.15;47.92;;;;;;;7.45;100.00;101906.41;5062543;28;20131;-80
2023/03/19 08:08:37;;;;;;;58.05;51.85;;;;;;;9.29;100.00;101916.13;5053588;28;20045;-81
2023/03/19 08:11:04;;;;;;;56.13;50.05;;;;;;;9.89;100.00;101903.31;5065567;28;20075;-81
2023/03/19 08:13:31;;;;;;;52.20;44.05;;;;;;;9.60;100.00;101904.78;5057801;28;20045;-81
2023/03/19 08:15:58;;;;;;;52.13;44.67;;;;;;;9.38;100.00;101907.16;5057260;28;20076;-80
2023/03/19 08:18:25;;;;;;;52.25;45.38;;;;;;;10.50;100.00;101902.53;5059649;28;20040;-80
2023/03/19 08:20:52;;;;;;;53.17;47.40;;;;;;;9.89;100.00;101900.66;5060362;28;20429;-80
2023/03/19 08:23:18;;;;;;;50.63;44.72;;;;;;;9.97;100.00;101898.81;5058493;28;20075;-80
2023/03/19 08:25:47;;;;;;;92.90;65.55;;;;;;;10.85;100.00;101902.94;5049878;28;20083;-80
2023/03/19 08:28:13;;;;;;;47.08;41.90;;;;;;;10.21;100.00;101892.56;5059221;28;20045;-80
2023/03/19 08:30:40;;;;;;;46.13;41.38;;;;;;;10.70;100.00;101894.91;5056349;28;20583;-81
2023/03/19 08:33:07;;;;;;;93.45;83.15;;;;;;;11.84;100.00;101882.28;5057781;28;20069;-80
2023/03/19 08:35:34;;;;;;;56.28;49.50;;;;;;;11.45;100.00;101874.59;5071925;28;20049;-80
2023/03/19 08:38:01;;;;;;;51.55;46.00;;;;;;;11.39;100.00;101885.97;5061811;28;20049;-80
2023/03/19 08:40:27;;;;;;;55.05;49.63;;;;;;;12.34;100.00;101875.31;5054710;28;20049;-81
2023/03/19 08:42:56;;;;;;;49.90;44.55;;;;;;;12.90;100.00;101871.09;5058375;28;20056;-81
2023/03/19 08:45:23;;;;;;;46.70;41.83;;;;;;;13.44;100.00;101870.47;5065408;28;20079;-80
2023/03/19 08:47:50;;;;;;;48.72;43.63;;;;;;;13.95;100.00;101865.56;5058861;28;20076;-82
2023/03/19 08:50:18;;;;;;;58.47;49.30;;;;;;;13.15;100.00;101868.81;5058918;28;20056;-81
2023/03/19 08:52:45;;;;;;;81.85;73.10;;;;;;;13.65;100.00;101862.38;5058372;28;20110;-80
2023/03/19 08:55:12;;;;;;;53.78;47.92;;;;;;;13.74;100.00;101863.03;5059832;28;20049;-81
2023/03/19 08:57:39;;;;;;;83.75;75.63;;;;;;;13.48;100.00;101864.53;5055939;28;20045;-81
2023/03/19 09:00:08;;;;;;;52.28;47.25;;;;;;;14.02;100.00;101868.25;5057495;28;20076;-80
2023/03/19 09:02:35;;;;;;;50.33;45.03;;;;;;;13.27;100.00;101859.28;5060119;28;20057;-81
2023/03/19 09:05:02;;;;;;;47.75;42.88;;;;;;;14.33;100.00;101861.56;5065557;28;20055;-81
2023/03/19 09:07:29;;;;;;;49.55;44.45;;;;;;;13.20;100.00;101847.72;5056198;28;20049;-81
2023/03/19 09:09:55;;;;;;;47.00;42.22;;;;;;;15.40;100.00;101838.28;5057425;28;20057;-81
2023/03/19 09:12:22;;;;;;;48.97;44.03;;;;;;;13.41;100.00;101836.19;5057530;28;20049;-80
2023/03/19 09:14:49;;;;;;;48.05;43.28;;;;;;;12.96;100.00;101836.47;5056493;28;20053;-80
2023/03/19 09:17:17;;;;;;;46.90;42.40;;;;;;;15.19;100.00;101834.84;5062933;28;20052;-81
2023/03/19 09:19:44;;;;;;;44.60;40.10;;;;;;;14.60;100.00;101839.19;5054271;28;20072;-81
2023/03/19 09:22:10;;;;;;;48.83;43.88;;;;;;;16.13;100.00;101822.72;5067244;28;20053;-80
2023/03/19 09:24:37;;;;;;;51.30;46.30;;;;;;;15.01;100.00;101826.66;5065210;28;20102;-81
2023/03/19 09:27:04;;;;;;;50.70;45.35;;;;;;;14.73;100.00;101838.38;5063720;28;20045;-81
2023/03/19 09:29:31;;;;;;;52.35;47.22;;;;;;;15.37;100.00;101825.31;5062556;28;20049;-80
2023/03/19 09:31:59;;;;;;;52.40;47.25;;;;;;;16.10;100.00;101819.66;5060904;28;20041;-81
2023/03/19 09:34:27;;;;;;;51.00;45.85;;;;;;;16.39;95.79;101819.03;5074559;28;20064;-81
2023/03/19 09:36:54;;;;;;;52.85;47.70;;;;;;;16.56;98.24;101826.56;5064678;28;20053;-81
2023/03/19 09:39:21;;;;;;;51.92;46.78;;;;;;;16.20;96.78;101820.00;5060715;28;20049;-81
2023/03/19 09:41:59;;;;;;;51.17;45.92;;;;;;;17.62;93.67;101814.75;5064829;28;20048;-81
2023/03/19 09:44:29;;;;;;;50.88;45.67;;;;;;;15.70;88.76;101827.88;5065385;28;20079;-81
2023/03/19 09:47:04;;;;;;;52.97;47.55;;;;;;;16.15;97.73;101814.47;5062169;28;20041;-80
2023/03/19 09:49:38;;;;;;;53.00;47.78;;;;;;;16.98;85.05;101824.97;5061616;28;20045;-81
2023/03/19 09:52:16;;;;;;;51.80;46.72;;;;;;;17.09;74.37;101809.97;5063541;28;20067;-81
2023/03/19 09:54:47;;;;;;;37.17;32.30;;;;;;;16.81;77.42;101816.66;5063814;28;20053;-81
2023/03/19 09:57:16;;;;;;;36.53;32.58;;;;;;;17.43;73.16;101799.69;5063186;28;20114;-81
2023/03/19 09:59:43;;;;;;;36.40;31.75;;;;;;;18.11;75.18;101804.78;5063931;28;20053;-81
2023/03/19 10:02:38;;;;;;;48.10;39.35;;;;;;;18.25;78.24;101806.25;5060017;28;20057;-81
2023/03/19 10:05:18;;;;;;;44.67;36.72;;;;;;;17.72;75.98;101793.53;5062167;28;20045;-81
2023/03/19 10:08:01;;;;;;;42.38;36.75;;;;;;;17.59;67.57;101786.47;5061329;28;20053;-81
2023/03/19 10:10:49;;;;;;;42.78;35.45;;;;;;;16.39;87.14;101786.84;5064892;28;20080;-81
2023/03/19 10:13:30;;;;;;;43.45;36.92;;;;;;;16.92;85.13;101785.59;5061129;28;20115;-81
2023/03/19 10:16:00;;;;;;;42.88;35.97;;;;;;;18.29;81.06;101783.22;5065735;28;20045;-81
2023/03/19 10:18:31;;;;;;;46.60;36.08;;;;;;;15.61;78.71;101784.44;5064530;28;20046;-81
2023/03/19 10:21:04;;;;;;;46.22;40.92;;;;;;;16.11;84.66;101779.25;5066106;28;20052;-81
2023/03/19 10:23:39;;;;;;;42.20;34.15;;;;;;;15.72;75.61;101774.94;5061634;28;20057;-83
2023/03/19 10:26:11;;;;;;;40.58;35.60;;;;;;;15.23;100.00;101771.00;5062199;28;20042;-81
2023/03/19 10:28:39;;;;;;;40.47;35.20;;;;;;;18.07;84.11;101769.50;5062096;28;20049;-81
2023/03/19 10:31:21;;;;;;;42.08;34.78;;;;;;;15.28;80.91;101761.31;5062407;28;20077;-81
2023/03/19 10:33:56;;;;;;;43.17;35.90;;;;;;;13.90;96.38;101768.38;5066050;28;20045;-81
2023/03/19 10:36:28;;;;;;;43.00;36.72;;;;;;;16.81;100.00;101763.00;5073957;28;20053;-81
2023/03/19 10:38:55;;;;;;;38.10;32.33;;;;;;;15.73;77.34;101769.38;5060960;28;20042;-81
2023/03/19 10:41:32;;;;;;;39.97;32.35;;;;;;;18.87;69.69;101753.91;5061545;28;20088;-81
2023/03/19 10:44:02;;;;;;;36.97;32.92;;;;;;;19.40;72.43;101742.88;5059845;28;20045;-81
2023/03/19 10:46:37;;;;;;;41.80;37.30;;;;;;;18.61;65.17;101750.63;5058558;28;20049;-81
2023/03/19 10:49:04;;;;;;;42.33;36.35;;;;;;;17.39;65.75;101740.25;5063059;28;20111;-81
2023/03/19 10:51:33;;;;;;;38.20;34.15;;;;;;;18.48;68.65;101740.06;5062846;28;20103;-81
2023/03/19 10:54:01;;;;;;;43.35;37.97;;;;;;;17.60;76.27;101739.75;5060410;28;20049;-81
2023/03/19 10:56:33;;;;;;;39.10;31.60;;;;;;;17.52;64.24;101729.34;5054212;28;20172;-81
2023/03/19 10:59:02;;;;;;;43.30;38.78;;;;;;;17.25;66.74;101722.69;5058134;28;20166;-81
2023/03/19 11:01:33;;;;;;;44.70;35.10;;;;;;;13.44;77.45;101732.53;5062463;28;20052;-81
2023/03/19 11:04:01;;;;;;;40.35;34.88;;;;;;;15.73;87.12;101723.84;5067545;28;20056;-81
2023/03/19 11:06:34;;;;;;;35.70;31.20;;;;;;;16.87;72.03;101716.50;5058983;28;20047;-81
2023/03/19 11:09:04;;;;;;;43.10;35.70;;;;;;;18.62;67.60;101716.47;5059125;28;20049;-81
2023/03/19 11:11:35;;;;;;;35.08;30.20;;;;;;;18.68;62.57;101710.94;5066472;28;20073;-81
2023/03/19 11:14:10;;;;;;;40.85;33.83;;;;;;;16.78;66.18;101708.97;5059525;28;20502;-81